createdAt,value
2022-12-12T01:15:09.202Z,0.30
2022-12-12T01:17:37.933Z,1.08
2022-12-12T01:20:15.399Z,1.08
2022-12-12T01:22:42.389Z,1.20
2022-12-12T01:25:11.823Z,1.37
2022-12-12T01:27:38.819Z,1.33
2022-12-12T01:30:07.099Z,1.48
2022-12-12T01:32:33.726Z,1.25
2022-12-12T01:35:00.388Z,0.80
2022-12-12T01:37:27.275Z,1.58
2022-12-12T01:39:53.853Z,1.00
2022-12-12T01:42:20.441Z,1.40
2022-12-12T01:44:50.502Z,0.85
2022-12-12T01:47:20.241Z,1.02
2022-12-12T01:49:56.021Z,0.95
2022-12-12T01:52:30.809Z,1.45
2022-12-12T01:55:02.398Z,1.17
2022-12-12T01:57:40.122Z,0.73
2022-12-12T02:00:10.074Z,1.48
2022-12-12T02:02:41.011Z,1.45
2022-12-12T02:05:17.284Z,1.77
2022-12-12T02:07:43.967Z,1.02
2022-12-12T02:10:10.969Z,1.08
2022-12-12T02:12:37.586Z,2.22
2022-12-12T02:15:04.493Z,1.02
2022-12-12T02:17:54.565Z,0.88
2022-12-12T02:21:09.692Z,1.25
2022-12-12T02:24:04.714Z,1.48
2022-12-12T02:26:50.271Z,1.87
2022-12-12T02:29:39.080Z,1.37
2022-12-12T02:32:25.816Z,1.80
2022-12-12T02:35:06.534Z,0.95
2022-12-12T02:37:53.562Z,1.37
2022-12-12T02:40:46.067Z,1.60
2022-12-12T02:43:50.847Z,1.05
2022-12-12T02:46:25.429Z,0.88
2022-12-12T02:49:03.442Z,1.65
2022-12-12T02:51:33.095Z,2.03
2022-12-12T02:54:00.443Z,2.05
2022-12-12T02:56:46.540Z,2.03
2022-12-12T02:59:21.952Z,1.90
2022-12-12T03:02:10.440Z,1.55
2022-12-12T03:05:18.916Z,1.98
2022-12-12T03:08:16.673Z,1.33
2022-12-12T03:10:56.849Z,1.60
2022-12-12T03:13:50.879Z,1.75
2022-12-12T03:16:38.637Z,2.37
2022-12-12T03:19:11.273Z,1.73
2022-12-12T03:22:13.626Z,1.48
2022-12-12T03:24:49.577Z,0.95
2022-12-12T03:27:30.284Z,2.15
2022-12-12T03:30:02.553Z,1.42
2022-12-12T03:32:43.200Z,2.58
2022-12-12T03:35:15.657Z,2.15
2022-12-12T03:37:49.221Z,1.33
2022-12-12T03:40:27.650Z,2.65
2022-12-12T03:43:06.627Z,2.08
2022-12-12T03:45:48.271Z,2.08
2022-12-12T03:48:35.130Z,2.53
2022-12-12T03:51:05.714Z,2.70
2022-12-12T03:53:39.821Z,2.15
2022-12-12T03:56:09.692Z,2.08
2022-12-12T03:59:09.265Z,1.73
2022-12-12T04:02:00.266Z,1.98
2022-12-12T04:05:13.551Z,1.92
2022-12-12T04:07:46.134Z,1.65
2022-12-12T04:10:31.507Z,2.12
2022-12-12T04:13:21.141Z,2.10
2022-12-12T04:15:51.901Z,1.85
2022-12-12T04:18:52.119Z,3.42
2022-12-12T04:21:57.022Z,2.95
2022-12-12T04:24:36.156Z,2.28
2022-12-12T04:27:11.658Z,1.77
2022-12-12T04:30:02.978Z,1.92
2022-12-12T04:32:35.938Z,1.55
2022-12-12T04:35:05.307Z,1.55
2022-12-12T04:37:37.006Z,1.98
2022-12-12T04:40:07.863Z,1.90
2022-12-12T04:42:42.245Z,1.10
2022-12-12T04:45:15.549Z,1.98
2022-12-12T04:47:46.895Z,1.62
2022-12-12T04:50:14.341Z,1.87
2022-12-12T04:52:42.867Z,1.98
2022-12-12T04:55:15.243Z,1.40
2022-12-12T04:57:48.884Z,1.70
2022-12-12T05:00:16.695Z,1.40
2022-12-12T05:02:53.825Z,1.95
2022-12-12T05:05:33.601Z,1.70
2022-12-12T05:08:08.360Z,3.03
2022-12-12T05:10:43.052Z,2.05
2022-12-12T05:13:18.395Z,2.00
2022-12-12T05:15:47.237Z,2.17
2022-12-12T05:18:13.940Z,2.65
2022-12-12T05:20:40.578Z,1.73
2022-12-12T05:23:07.477Z,2.67
2022-12-12T05:25:34.068Z,2.78
2022-12-12T05:28:00.788Z,1.73
2022-12-12T05:30:28.383Z,2.33
2022-12-12T05:32:56.325Z,2.05
2022-12-12T05:35:23.239Z,1.35
2022-12-12T05:37:52.205Z,2.28
2022-12-12T05:40:20.761Z,3.40
2022-12-12T05:42:48.209Z,2.12
2022-12-12T05:45:15.399Z,2.33
2022-12-12T05:47:42.207Z,2.00
2022-12-12T05:50:09.948Z,2.67
2022-12-12T05:52:37.072Z,1.65
2022-12-12T05:55:04.426Z,1.35
2022-12-12T05:57:31.053Z,1.48
2022-12-12T05:59:57.943Z,2.65
2022-12-12T06:02:24.634Z,3.65
2022-12-12T06:04:51.556Z,2.55
2022-12-12T06:07:18.383Z,1.45
2022-12-12T06:09:45.237Z,1.65
2022-12-12T06:12:12.289Z,1.48
2022-12-12T06:14:39.412Z,2.60
2022-12-12T06:17:06.158Z,1.70
2022-12-12T10:38:15.838Z,1.87
2022-12-12T10:40:49.140Z,3.25
2022-12-12T10:43:23.769Z,3.70
2022-12-12T10:46:19.196Z,4.05
2022-12-12T10:48:48.484Z,3.35
2022-12-12T10:51:18.855Z,4.70
2022-12-12T10:53:46.863Z,4.10
2022-12-12T10:56:29.302Z,3.40
2022-12-12T10:58:58.856Z,5.28
2022-12-12T11:02:07.704Z,2.55
2022-12-12T11:04:25.458Z,4.62
2022-12-12T11:06:56.143Z,2.87
2022-12-12T11:09:26.105Z,4.37
2022-12-12T11:12:13.984Z,3.35
2022-12-12T11:14:49.398Z,4.07
2022-12-12T11:17:25.005Z,3.03
2022-12-12T11:19:55.332Z,4.90
2022-12-12T11:22:22.375Z,2.83
2022-12-12T11:24:50.256Z,3.03
2022-12-12T11:27:28.981Z,3.90
2022-12-12T11:30:00.560Z,3.87
2022-12-12T11:32:49.410Z,4.40
2022-12-12T11:35:27.373Z,4.68
2022-12-12T11:38:00.048Z,3.42
2022-12-12T11:40:29.916Z,3.95
2022-12-12T11:43:24.417Z,5.50
2022-12-12T11:46:03.000Z,5.00
2022-12-12T11:48:51.551Z,4.05
2022-12-12T11:51:33.341Z,4.00
2022-12-12T11:54:02.489Z,3.78
2022-12-12T11:56:47.922Z,2.28
2022-12-12T11:59:33.735Z,2.62
2022-12-12T12:02:16.162Z,3.65
2022-12-12T12:05:13.629Z,2.60
2022-12-12T12:08:14.567Z,4.10
2022-12-12T12:10:41.441Z,2.70
2022-12-12T12:13:27.392Z,2.70
2022-12-12T12:16:21.943Z,3.37
2022-12-12T12:19:36.642Z,3.47
2022-12-12T12:22:25.381Z,2.85
2022-12-12T12:24:55.012Z,3.53
2022-12-12T12:27:43.912Z,3.15
2022-12-12T12:30:20.294Z,3.55
2022-12-12T12:33:02.079Z,2.30
2022-12-12T12:35:32.676Z,3.45
2022-12-12T12:38:12.355Z,2.62
2022-12-12T12:40:57.591Z,3.65
2022-12-12T12:43:27.599Z,4.25
2022-12-12T12:46:19.695Z,2.97
2022-12-12T12:48:59.014Z,2.30
2022-12-12T12:51:40.568Z,3.42
2022-12-12T12:54:18.825Z,2.17
2022-12-12T12:56:58.928Z,2.50
2022-12-12T12:59:33.200Z,3.33
2022-12-12T13:02:12.486Z,2.25
2022-12-12T13:04:51.041Z,3.30
2022-12-12T13:07:41.269Z,3.70
2022-12-12T13:10:29.705Z,3.67
2022-12-12T13:13:30.695Z,2.62
2022-12-12T13:16:07.735Z,2.28
2022-12-12T13:18:45.107Z,2.65
2022-12-12T13:21:34.544Z,2.35
2022-12-12T13:24:10.170Z,3.65
2022-12-12T13:27:05.670Z,1.95
2022-12-12T13:29:50.822Z,3.55
2022-12-12T13:32:47.681Z,2.22
2022-12-12T13:35:25.671Z,2.67
2022-12-12T13:37:54.847Z,3.17
2022-12-12T13:40:42.636Z,4.28
2022-12-12T13:43:28.988Z,3.10
2022-12-12T13:45:55.792Z,3.53
2022-12-12T13:48:25.798Z,3.22
2022-12-12T13:51:27.233Z,3.33
2022-12-12T13:54:14.935Z,2.83
2022-12-12T13:56:46.021Z,2.50
2022-12-12T13:59:22.047Z,3.37
2022-12-12T14:02:00.196Z,2.62
2022-12-12T14:04:27.560Z,2.85
2022-12-12T14:07:16.913Z,1.65
2022-12-12T14:09:49.011Z,3.92
2022-12-12T14:12:31.899Z,3.33
2022-12-12T14:15:08.710Z,1.80
2022-12-12T14:17:42.800Z,3.17
2022-12-12T18:22:07.433Z,0.80
2022-12-12T18:24:34.827Z,1.27
2022-12-12T18:27:03.532Z,1.37
2022-12-12T18:29:30.398Z,2.78
2022-12-12T18:31:57.403Z,3.12
2022-12-12T18:34:24.671Z,2.30
2022-12-12T18:36:51.340Z,2.50
2022-12-12T18:39:18.622Z,4.57
2022-12-12T18:41:46.861Z,2.95
2022-12-12T18:44:15.222Z,3.25
2022-12-12T18:46:43.888Z,3.55
2022-12-12T18:49:15.075Z,4.10
2022-12-12T18:51:42.773Z,4.07
2022-12-12T18:54:15.499Z,3.30
2022-12-12T18:56:44.920Z,3.22
2022-12-12T18:59:12.105Z,3.45
2022-12-12T19:01:38.903Z,3.65
2022-12-12T19:04:12.217Z,2.25
2022-12-12T19:06:41.826Z,3.75
2022-12-12T19:09:13.213Z,3.05
2022-12-12T19:11:40.425Z,2.90
2022-12-12T19:14:08.692Z,3.78
2022-12-12T19:16:36.502Z,3.80
2022-12-12T19:19:09.687Z,2.55
2022-12-12T19:21:38.386Z,4.45
2022-12-12T19:24:09.080Z,3.80
2022-12-12T19:26:37.380Z,2.87
2022-12-12T19:29:06.707Z,2.40
2022-12-12T19:31:35.898Z,3.42
2022-12-12T19:34:04.980Z,4.57
2022-12-12T19:36:32.530Z,2.75
2022-12-12T19:39:03.095Z,3.90
2022-12-12T19:41:30.224Z,2.60
2022-12-12T19:44:01.463Z,3.75
2022-12-12T19:46:31.326Z,2.60
2022-12-12T19:49:03.936Z,3.83
2022-12-12T19:51:32.865Z,4.28
2022-12-12T19:54:00.507Z,3.62
2022-12-12T19:56:30.489Z,5.43
2022-12-12T19:58:58.406Z,3.03
2022-12-12T20:01:30.929Z,4.95
2022-12-12T20:04:05.290Z,4.03
2022-12-12T20:06:41.311Z,4.40
2022-12-12T20:09:10.216Z,3.80
2022-12-12T20:11:37.975Z,3.53
2022-12-12T20:14:05.064Z,2.87
2022-12-12T20:16:32.210Z,4.20
2022-12-12T20:19:00.508Z,2.83
2022-12-12T20:22:00.257Z,3.28
2022-12-12T20:24:18.349Z,3.62
2022-12-12T20:26:47.786Z,3.25
2022-12-12T20:29:15.025Z,3.15
2022-12-12T20:31:45.423Z,3.65
2022-12-12T20:34:13.688Z,3.15
2022-12-12T20:36:41.482Z,2.50
2022-12-12T20:39:12.148Z,3.30
2022-12-12T20:41:40.115Z,3.87
2022-12-12T20:44:08.131Z,4.72
2022-12-12T20:46:38.000Z,4.07
2022-12-12T20:49:07.739Z,3.40
2022-12-12T20:54:22.542Z,3.15
2022-12-12T20:56:49.784Z,3.25
2022-12-12T20:59:16.529Z,3.12
2022-12-12T21:01:43.678Z,3.83
2022-12-12T21:04:10.589Z,4.85
2022-12-12T21:06:39.867Z,2.47
2022-12-12T21:09:14.037Z,4.22
2022-12-12T21:11:45.102Z,4.12
2022-12-12T21:14:12.057Z,4.35
2022-12-12T21:16:39.744Z,3.08
2022-12-12T21:19:12.369Z,3.37
2022-12-12T21:21:41.055Z,4.10
2022-12-12T21:24:09.786Z,4.87
2022-12-12T21:26:36.411Z,3.45
2022-12-12T21:29:04.932Z,4.85
2022-12-12T21:31:37.310Z,3.90
2022-12-12T21:34:05.877Z,3.00
2022-12-12T21:36:32.868Z,4.07
2022-12-12T21:39:01.185Z,4.00
2022-12-12T21:41:28.318Z,2.92
2022-12-12T21:43:56.208Z,4.18
2022-12-12T21:46:24.668Z,3.08
2022-12-12T21:49:12.458Z,3.10
2022-12-12T21:51:40.399Z,4.30
2022-12-12T21:54:09.350Z,3.55
2022-12-12T21:56:36.092Z,4.60
2022-12-12T21:59:03.799Z,4.35
2022-12-12T22:01:32.376Z,3.53
2022-12-12T22:04:00.247Z,3.00
2022-12-12T22:06:32.557Z,5.00
2022-12-12T22:09:01.080Z,4.70
2022-12-12T22:11:41.812Z,4.32
2022-12-12T22:14:16.784Z,4.65
2022-12-12T22:16:43.454Z,3.12
2022-12-12T22:19:12.239Z,3.58
2022-12-12T22:21:39.448Z,2.72
2022-12-12T22:24:06.562Z,4.68
2022-12-12T22:26:38.529Z,5.25
2022-12-12T22:29:08.176Z,4.43
2022-12-12T22:31:37.688Z,3.55
2022-12-12T22:34:07.053Z,4.72
2022-12-12T22:36:36.334Z,4.90
2022-12-12T22:39:04.592Z,3.85
2022-12-12T22:41:31.561Z,3.87
2022-12-12T22:44:00.607Z,3.47
2022-12-12T22:46:28.489Z,7.10
2022-12-12T22:48:56.915Z,4.07
2022-12-12T22:51:27.217Z,4.28
2022-12-12T22:53:58.553Z,2.97
2022-12-12T22:56:28.439Z,4.57
2022-12-12T22:58:55.305Z,5.25
2022-12-12T23:01:23.220Z,3.15
2022-12-12T23:03:51.346Z,4.28
2022-12-12T23:06:19.935Z,3.72
2022-12-12T23:08:51.851Z,4.55
2022-12-12T23:11:20.369Z,3.58
2022-12-12T23:13:47.083Z,4.80
2022-12-12T23:16:17.277Z,3.58
2022-12-12T23:18:45.996Z,4.25
2022-12-12T23:21:17.251Z,4.10
2022-12-12T23:23:45.305Z,4.20
2022-12-12T23:26:15.169Z,3.92
2022-12-12T23:28:42.698Z,3.62
2022-12-12T23:31:34.711Z,4.90
2022-12-12T23:34:08.467Z,3.45
2022-12-12T23:36:35.834Z,5.75
2022-12-12T23:39:06.287Z,4.25
2022-12-12T23:41:34.885Z,4.90
2022-12-12T23:44:02.144Z,3.75
2022-12-12T23:46:29.216Z,3.92
2022-12-12T23:49:07.717Z,4.35
2022-12-12T23:51:38.628Z,5.20
2022-12-12T23:54:09.203Z,4.15
2022-12-12T23:56:36.286Z,2.65
2022-12-12T23:59:03.597Z,3.00
